Terminal Aerodrome Forecast
Issued by NWS

Home | Current Version | Previous Version | Text Only | Print | Product List | Glossary Off
Versions: 1 2 3 4 5 6 7 8 9 10 11 12 13 14 15 16

000
FTUS43 KBIS 151100
TAFJMS
TAF
KJMS 151125Z 1512/1612 34022G32KT P6SM OVC007
     FM160000 34020G30KT P6SM OVC015=

USA.gov is the U.S. government's official web portal to all federal, state and local government web resources and services.